Portada
METAR-TAF:

METAR-TAF

Aeropuertos :

Cazaux, Francia

latitud: 44-32N, longitud: 001-08W, altitud: 25 m

Observación

El informe se hizo hace 10 minutos, a las 16:30 UTC
Viento 7 kt del oeste-suroeste
Temperatura 32°C
Humedad 28%
Presión 1013 hPa
Visibilidad 10 km o más
sin nubes por debajo de 1500 m y sin presencia de cumulonimbus.

METAR: LFBC 281630Z AUTO 25007KT CAVOK 32/11 Q1013

Hora: 18:40 (16:40 UTC)


TAF: falta

Observaciones y pronósticos meteorológicos de más de 4000 aeropuertos (mensajes METAR y TAF).

Los puntos amarillos y rojos representan las estaciones disponibles.

Ponga el ratón en el punto deseado para ver el nombre de la estación.

Haga clic para ver las observaciones y los pronósticos meteorológicos.

Para cambiar el mapa : haga clic en los botones verdes con una cruz de color negro para hacer un zoom, en el botón verde con un guión para alejar o en las flechas verdes para mapas adyacentes.


METAR-TAF: